Time;durP1;ratioP1;P1;durP2;ratioP2;P2;SDS_P1;SDS_P2;PMS_P1;PMS_P2;Temp;Humidity;BMP_temperature;BMP_pressure;BME280_temperature;BME280_humidity;BME280_pressure;Samples;Min_cycle;Max_cycle;Signal;HPM_P1;HPM_P2
2023/04/07 00:00:56;;;;;;;9.37;7.90;;;9.50;99.90;;;;;;5011834;28;20265;-79
2023/04/07 00:03:22;;;;;;;13.07;11.50;;;9.50;99.90;;;;;;5018265;28;20625;-79
2023/04/07 00:05:48;;;;;;;14.10;12.10;;;9.50;99.90;;;;;;5011434;28;20198;-79
2023/04/07 00:08:14;;;;;;;12.63;11.35;;;9.50;99.90;;;;;;4996104;28;20605;-79
2023/04/07 00:10:40;;;;;;;12.53;11.23;;;9.60;99.90;;;;;;5012995;28;20185;-78
2023/04/07 00:13:06;;;;;;;15.13;12.48;;;9.60;99.90;;;;;;5013124;28;20185;-77
2023/04/07 00:15:32;;;;;;;10.47;9.20;;;9.60;99.90;;;;;;5015333;28;20198;-78
2023/04/07 00:17:57;;;;;;;10.43;9.23;;;9.50;99.90;;;;;;5015477;28;20277;-78
2023/04/07 00:20:23;;;;;;;11.03;8.80;;;9.60;99.90;;;;;;5013442;28;20178;-78
2023/04/07 00:22:49;;;;;;;11.73;10.23;;;9.60;99.90;;;;;;5010604;28;20244;-79
2023/04/07 00:25:14;;;;;;;13.60;12.20;;;9.60;99.90;;;;;;5012784;28;20197;-78
2023/04/07 00:27:40;;;;;;;10.07;9.10;;;9.60;99.90;;;;;;5011383;28;20613;-79
2023/04/07 00:30:07;;;;;;;10.30;8.60;;;9.60;99.90;;;;;;5011262;28;20174;-79
2023/04/07 00:32:33;;;;;;;10.95;9.85;;;9.70;99.90;;;;;;4994350;28;20174;-79
2023/04/07 00:34:58;;;;;;;10.27;9.20;;;9.70;99.90;;;;;;5012362;28;20693;-78
2023/04/07 00:37:24;;;;;;;9.30;8.33;;;9.70;99.90;;;;;;4994265;28;20166;-79
2023/04/07 00:39:51;;;;;;;10.73;9.67;;;9.70;99.90;;;;;;5011325;28;20170;-79
2023/04/07 00:42:17;;;;;;;10.00;8.35;;;9.70;99.90;;;;;;5010230;28;20177;-79
2023/04/07 00:44:43;;;;;;;10.38;9.25;;;9.80;99.90;;;;;;5010737;28;20221;-79
2023/04/07 00:47:09;;;;;;;12.13;10.83;;;9.80;99.90;;;;;;5011208;28;20166;-79
2023/04/07 00:49:36;;;;;;;10.80;9.70;;;9.80;99.90;;;;;;4994439;28;20611;-79
2023/04/07 00:52:03;;;;;;;9.52;8.57;;;9.80;99.90;;;;;;5023272;28;20619;-79
2023/04/07 00:54:30;;;;;;;11.07;9.93;;;9.80;99.90;;;;;;4997275;28;20189;-79
2023/04/07 00:56:56;;;;;;;9.80;7.97;;;9.80;99.90;;;;;;5029312;28;20202;-79
2023/04/07 00:59:22;;;;;;;10.55;8.38;;;9.90;99.90;;;;;;5030062;28;20174;-80
2023/04/07 01:02:03;;;;;;;10.00;8.67;;;9.90;99.90;;;;;;5021816;28;20696;-79
2023/04/07 01:05:29;;;;;;;10.90;9.80;;;9.90;99.90;;;;;;5010268;28;20599;-80
2023/04/07 01:08:16;;;;;;;9.02;8.13;;;10.00;99.90;;;;;;4991029;28;20954;-80
2023/04/07 01:11:00;;;;;;;8.80;7.35;;;10.00;99.90;;;;;;4985419;28;20190;-79
2023/04/07 01:13:35;;;;;;;10.00;8.23;;;10.00;99.90;;;;;;4989187;28;20248;-79
2023/04/07 01:16:29;;;;;;;9.70;8.48;;;10.10;99.90;;;;;;4990302;28;20190;-80
2023/04/07 01:19:12;;;;;;;9.55;8.55;;;10.10;99.90;;;;;;4991151;28;20199;-79
2023/04/07 01:21:41;;;;;;;9.45;8.55;;;10.20;99.90;;;;;;4971133;28;20232;-79
2023/04/07 01:24:38;;;;;;;9.73;8.50;;;10.20;99.90;;;;;;4993872;28;20205;-79
2023/04/07 01:27:37;;;;;;;10.45;8.80;;;10.30;99.90;;;;;;5009804;28;20193;-80
2023/04/07 01:30:03;;;;;;;10.40;7.70;;;10.30;99.90;;;;;;4949441;28;20178;-79
2023/04/07 01:32:31;;;;;;;8.93;8.02;;;10.30;99.90;;;;;;5009688;28;20171;-79
2023/04/07 01:34:58;;;;;;;8.70;7.80;;;10.30;99.90;;;;;;5010295;28;20240;-79
2023/04/07 01:37:25;;;;;;;10.50;9.40;;;10.40;99.90;;;;;;5009975;28;20210;-79
2023/04/07 01:39:52;;;;;;;9.57;8.65;;;10.40;99.90;;;;;;4993965;28;20170;-79
2023/04/07 01:42:19;;;;;;;10.73;8.20;;;10.50;99.90;;;;;;5009522;28;20596;-79
2023/04/07 01:44:46;;;;;;;9.30;8.43;;;10.50;99.90;;;;;;5011298;28;20630;-79
2023/04/07 01:47:16;;;;;;;12.88;9.00;;;10.60;99.90;;;;;;4987760;28;20171;-79
2023/04/07 01:49:44;;;;;;;10.45;9.35;;;10.60;99.90;;;;;;5010295;28;20177;-82
2023/04/07 01:52:10;;;;;;;10.88;9.65;;;10.70;99.90;;;;;;5009442;28;20185;-81
2023/04/07 01:54:36;;;;;;;10.82;9.70;;;10.70;99.90;;;;;;5010314;28;20619;-82
2023/04/07 01:57:02;;;;;;;10.30;9.07;;;10.70;99.90;;;;;;4993338;28;20198;-82
2023/04/07 01:59:28;;;;;;;9.87;8.87;;;10.80;99.90;;;;;;5010140;28;20204;-81
2023/04/07 02:01:56;;;;;;;10.40;9.40;;;10.80;99.90;;;;;;5009636;28;20577;-82
2023/04/07 02:04:42;;;;;;;10.63;9.60;;;10.80;99.90;;;;;;4993132;28;20206;-82
2023/04/07 02:07:14;;;;;;;10.85;9.50;;;10.80;99.90;;;;;;5011460;28;20570;-81
2023/04/07 02:09:46;;;;;;;10.38;9.05;;;10.90;99.90;;;;;;5009689;28;20174;-81
2023/04/07 02:12:14;;;;;;;12.10;9.90;;;10.90;99.90;;;;;;4993320;28;20669;-81
2023/04/07 02:14:49;;;;;;;12.10;10.77;;;10.90;99.90;;;;;;5009721;28;20170;-81
2023/04/07 02:17:16;;;;;;;11.85;10.07;;;10.90;99.90;;;;;;5010013;28;20523;-81
2023/04/07 02:19:44;;;;;;;11.20;10.10;;;10.90;99.90;;;;;;4992534;28;20170;-81
2023/04/07 02:22:12;;;;;;;11.45;9.40;;;11.00;99.90;;;;;;4994532;28;20189;-81
2023/04/07 02:24:41;;;;;;;12.18;9.68;;;11.00;99.90;;;;;;4994448;28;20205;-81
2023/04/07 02:27:07;;;;;;;11.40;10.20;;;11.00;99.90;;;;;;5009846;28;20175;-81
2023/04/07 02:29:33;;;;;;;12.83;11.53;;;11.00;99.90;;;;;;5009630;28;20175;-81
2023/04/07 02:31:59;;;;;;;13.83;12.53;;;11.00;99.90;;;;;;4993051;28;20588;-81
2023/04/07 02:34:28;;;;;;;17.40;11.90;;;11.00;99.90;;;;;;4992961;28;20256;-81
2023/04/07 02:36:53;;;;;;;14.73;12.50;;;11.00;99.90;;;;;;5009765;28;20253;-81
2023/04/07 02:39:19;;;;;;;13.20;11.80;;;11.00;99.90;;;;;;4995188;28;20182;-81
2023/04/07 02:41:45;;;;;;;16.60;13.80;;;11.00;99.90;;;;;;4996494;28;20178;-81
2023/04/07 02:44:10;;;;;;;16.47;14.70;;;11.00;99.90;;;;;;5013142;28;20207;-81
2023/04/07 02:46:36;;;;;;;15.97;13.67;;;11.10;99.90;;;;;;5012993;28;20244;-81
2023/04/07 02:49:02;;;;;;;18.37;14.73;;;11.10;99.90;;;;;;5014807;28;20611;-81
2023/04/07 02:51:27;;;;;;;16.60;14.40;;;11.10;99.90;;;;;;5012620;28;20185;-81
2023/04/07 02:53:54;;;;;;;16.97;13.90;;;11.10;99.90;;;;;;5014926;28;20639;-81
2023/04/07 02:56:19;;;;;;;18.05;13.85;;;11.10;99.90;;;;;;5012749;28;20595;-82
2023/04/07 02:58:45;;;;;;;17.23;15.30;;;11.10;99.90;;;;;;4996953;28;20178;-81
2023/04/07 03:01:11;;;;;;;18.48;14.98;;;11.10;99.90;;;;;;4996357;28;20181;-81
2023/04/07 03:03:38;;;;;;;15.93;13.97;;;11.10;99.90;;;;;;4980262;28;20663;-81
2023/04/07 03:06:12;;;;;;;16.10;14.43;;;11.10;99.90;;;;;;5013168;28;20194;-81
2023/04/07 03:08:48;;;;;;;17.40;13.98;;;11.10;99.90;;;;;;4996520;28;20178;-82
2023/04/07 03:11:14;;;;;;;16.33;14.13;;;11.10;99.90;;;;;;4996256;28;20178;-81
2023/04/07 03:13:40;;;;;;;15.10;13.50;;;11.10;99.90;;;;;;4996164;28;20174;-81
2023/04/07 03:16:06;;;;;;;19.70;16.20;;;11.00;99.90;;;;;;4996364;28;20194;-80
2023/04/07 03:18:40;;;;;;;19.95;16.55;;;11.00;99.90;;;;;;5022322;28;20182;-81
2023/04/07 03:21:05;;;;;;;18.50;15.63;;;11.10;99.90;;;;;;5003763;28;20174;-81
2023/04/07 03:23:31;;;;;;;21.90;15.63;;;11.00;99.90;;;;;;5011938;28;20648;-81
2023/04/07 03:25:58;;;;;;;16.77;14.30;;;11.00;99.90;;;;;;5000489;28;20194;-81
2023/04/07 03:28:28;;;;;;;21.15;16.50;;;11.00;99.90;;;;;;4996254;28;20221;-81
2023/04/07 03:30:54;;;;;;;19.67;16.77;;;11.00;99.90;;;;;;4996114;28;20578;-81
2023/04/07 03:33:20;;;;;;;19.13;16.08;;;11.00;99.90;;;;;;4995943;28;20170;-80
2023/04/07 03:35:46;;;;;;;21.23;17.27;;;11.00;99.90;;;;;;4995891;28;20208;-81
2023/04/07 03:38:12;;;;;;;23.93;16.27;;;11.00;99.90;;;;;;4996369;28;20631;-80
2023/04/07 03:40:38;;;;;;;21.40;16.15;;;11.00;99.90;;;;;;5011911;28;20178;-81
2023/04/07 03:43:04;;;;;;;18.80;15.53;;;11.00;99.90;;;;;;5011761;28;20205;-81
2023/04/07 03:45:30;;;;;;;20.83;17.00;;;11.00;99.90;;;;;;5011877;28;20209;-81
2023/04/07 03:47:55;;;;;;;19.57;15.53;;;11.00;99.90;;;;;;4996010;28;20248;-81
2023/04/07 03:50:21;;;;;;;24.10;17.30;;;11.00;99.90;;;;;;4994923;28;20669;-81
2023/04/07 03:52:58;;;;;;;27.63;16.85;;;10.90;99.90;;;;;;5012041;28;20581;-81
2023/04/07 03:55:27;;;;;;;22.88;15.43;;;10.90;99.90;;;;;;4979730;28;20194;-81
2023/04/07 03:57:59;;;;;;;18.88;15.43;;;10.90;99.90;;;;;;5012139;28;20268;-81
2023/04/07 04:00:30;;;;;;;18.48;15.10;;;10.80;99.90;;;;;;4995548;28;20186;-81
2023/04/07 04:03:06;;;;;;;22.50;15.95;;;10.90;99.90;;;;;;5011655;28;20272;-81
2023/04/07 04:05:34;;;;;;;15.23;13.50;;;10.80;99.90;;;;;;5012894;28;20194;-80
2023/04/07 04:08:00;;;;;;;22.60;15.67;;;10.80;99.90;;;;;;5012021;28;20177;-81
2023/04/07 04:10:27;;;;;;;19.00;13.55;;;10.80;99.90;;;;;;5012055;28;20273;-80
2023/04/07 04:12:54;;;;;;;18.38;14.32;;;10.80;99.90;;;;;;5014615;28;20260;-80
2023/04/07 04:15:20;;;;;;;17.83;14.30;;;10.70;99.90;;;;;;5006698;28;20189;-80
2023/04/07 04:17:46;;;;;;;20.80;16.52;;;10.70;99.90;;;;;;5014709;28;20540;-79
2023/04/07 04:20:13;;;;;;;20.08;15.82;;;10.70;99.90;;;;;;5006926;28;20171;-80
2023/04/07 04:22:41;;;;;;;20.33;15.23;;;10.70;99.90;;;;;;4993520;28;20180;-80
2023/04/07 04:25:08;;;;;;;19.57;15.40;;;10.70;99.90;;;;;;4995403;28;20674;-80
2023/04/07 04:27:33;;;;;;;21.80;15.32;;;10.70;99.90;;;;;;5011349;28;20638;-80
2023/04/07 04:30:05;;;;;;;20.65;15.10;;;10.60;99.90;;;;;;5011539;28;20269;-80
2023/04/07 04:32:38;;;;;;;18.50;14.70;;;10.60;99.90;;;;;;4995314;28;20178;-80
2023/04/07 04:35:05;;;;;;;19.70;15.90;;;10.60;99.90;;;;;;4978865;28;20202;-80
2023/04/07 04:37:36;;;;;;;18.98;15.73;;;10.60;99.90;;;;;;5011251;28;20582;-79
2023/04/07 04:40:08;;;;;;;22.58;17.75;;;10.60;99.90;;;;;;4995244;28;20561;-79
2023/04/07 04:42:35;;;;;;;21.42;15.68;;;10.60;99.90;;;;;;4994413;28;20228;-79
2023/04/07 04:45:01;;;;;;;23.15;18.20;;;10.60;99.90;;;;;;4994771;28;20653;-79
2023/04/07 04:47:27;;;;;;;22.48;15.82;;;10.60;99.90;;;;;;5011209;28;20178;-79
2023/04/07 04:49:53;;;;;;;17.87;15.40;;;10.60;99.90;;;;;;5010828;28;20169;-79
2023/04/07 04:52:20;;;;;;;19.33;15.10;;;10.60;99.90;;;;;;5010741;28;20193;-80
2023/04/07 04:54:47;;;;;;;24.23;16.65;;;10.60;99.90;;;;;;4994367;28;20261;-80
2023/04/07 04:57:14;;;;;;;18.90;15.15;;;10.60;99.90;;;;;;5011086;28;20178;-80
2023/04/07 04:59:42;;;;;;;20.98;15.27;;;10.60;99.90;;;;;;4993882;28;20550;-80
2023/04/07 05:02:07;;;;;;;24.60;18.33;;;10.60;99.90;;;;;;4993429;28;20171;-80
2023/04/07 05:04:34;;;;;;;21.35;15.13;;;10.60;99.90;;;;;;5010157;28;20623;-79
2023/04/07 05:07:10;;;;;;;17.17;14.05;;;10.50;99.90;;;;;;4994495;28;20166;-80
2023/04/07 05:09:36;;;;;;;17.40;13.20;;;10.50;99.90;;;;;;5002085;28;20185;-80
2023/04/07 05:12:02;;;;;;;18.43;14.03;;;10.50;99.90;;;;;;5023333;28;20512;-79
2023/04/07 05:14:31;;;;;;;15.98;13.00;;;10.50;99.90;;;;;;5014509;28;20173;-80
2023/04/07 05:17:03;;;;;;;17.75;12.65;;;10.50;99.90;;;;;;5013732;28;20216;-80
2023/04/07 05:19:29;;;;;;;17.00;14.07;;;10.50;99.90;;;;;;5031711;28;20174;-80
2023/04/07 05:22:00;;;;;;;19.15;13.25;;;10.50;99.90;;;;;;4994548;28;20185;-80
2023/04/07 05:24:30;;;;;;;14.70;12.80;;;10.50;99.90;;;;;;5010314;28;20589;-80
2023/04/07 05:27:00;;;;;;;17.15;13.75;;;10.50;99.90;;;;;;4993966;28;20198;-80
2023/04/07 05:29:27;;;;;;;15.93;11.85;;;10.50;99.90;;;;;;4994430;28;20588;-80
2023/04/07 05:31:54;;;;;;;15.02;10.75;;;10.50;99.90;;;;;;5009998;28;20171;-80
2023/04/07 05:34:22;;;;;;;17.33;10.60;;;10.50;99.90;;;;;;5010224;28;20178;-79
2023/04/07 05:36:52;;;;;;;15.15;10.25;;;10.50;99.90;;;;;;4993896;28;20205;-80
2023/04/07 05:39:20;;;;;;;13.00;11.15;;;10.50;99.90;;;;;;4993998;28;20182;-80
2023/04/07 05:41:47;;;;;;;12.98;10.52;;;10.50;99.90;;;;;;4993344;28;20186;-80
2023/04/07 05:44:14;;;;;;;11.75;9.65;;;10.40;99.90;;;;;;5010053;28;20206;-80
2023/04/07 05:46:41;;;;;;;11.02;9.02;;;10.40;99.90;;;;;;5010481;28;20201;-80
2023/04/07 05:49:07;;;;;;;10.68;8.93;;;10.50;99.90;;;;;;5009937;28;20177;-81
2023/04/07 05:51:33;;;;;;;14.17;9.50;;;10.50;99.90;;;;;;4993712;28;20553;-80
2023/04/07 05:54:04;;;;;;;11.20;9.50;;;10.40;99.90;;;;;;4994027;28;20573;-80
2023/04/07 05:56:30;;;;;;;12.63;8.32;;;10.40;99.90;;;;;;4994232;28;20679;-80
2023/04/07 05:58:57;;;;;;;9.27;8.27;;;10.50;99.90;;;;;;4994029;28;20188;-81
2023/04/07 06:01:23;;;;;;;8.80;7.88;;;10.50;99.90;;;;;;5010589;28;20210;-81
2023/04/07 06:03:49;;;;;;;11.77;9.90;;;10.50;99.90;;;;;;4993717;28;20353;-80
2023/04/07 06:06:19;;;;;;;12.13;8.52;;;10.50;99.90;;;;;;4999953;28;20625;-81
2023/04/07 06:08:46;;;;;;;16.13;8.65;;;10.50;99.90;;;;;;5018047;28;20598;-80
2023/04/07 06:11:12;;;;;;;10.98;7.95;;;10.50;99.90;;;;;;5009627;28;20671;-80
2023/04/07 06:13:37;;;;;;;9.50;7.45;;;10.50;99.90;;;;;;4994525;28;20178;-80
2023/04/07 06:16:05;;;;;;;12.33;8.23;;;10.50;99.90;;;;;;5000506;28;20251;-80
2023/04/07 06:18:31;;;;;;;12.02;9.00;;;10.50;99.90;;;;;;5021887;28;20189;-81
2023/04/07 06:20:57;;;;;;;9.48;8.00;;;10.50;99.90;;;;;;5014885;28;20174;-80
2023/04/07 06:23:24;;;;;;;10.35;7.72;;;10.50;99.90;;;;;;5021272;28;20209;-81
2023/04/07 06:25:52;;;;;;;10.10;6.73;;;10.50;99.90;;;;;;5013136;28;20689;-81
2023/04/07 06:28:18;;;;;;;10.13;7.40;;;10.50;99.90;;;;;;5013988;28;20198;-80
2023/04/07 06:30:44;;;;;;;10.13;7.85;;;10.50;99.90;;;;;;4997175;28;20196;-80
2023/04/07 06:33:11;;;;;;;9.40;6.80;;;10.50;99.90;;;;;;4981387;28;20186;-80
2023/04/07 06:35:40;;;;;;;6.88;6.10;;;10.50;99.90;;;;;;4997443;28;20205;-80
2023/04/07 06:38:06;;;;;;;7.20;5.90;;;10.50;99.90;;;;;;4998302;28;20538;-80
2023/04/07 06:40:32;;;;;;;8.00;5.70;;;10.50;99.90;;;;;;5014380;28;20178;-80
2023/04/07 06:42:58;;;;;;;7.07;5.33;;;10.50;99.90;;;;;;5013567;28;21273;-80
2023/04/07 06:45:36;;;;;;;8.88;5.60;;;10.50;99.90;;;;;;5014672;28;20719;-80
2023/04/07 06:48:01;;;;;;;8.17;5.63;;;10.50;99.90;;;;;;5013458;28;20313;-80
2023/04/07 06:50:27;;;;;;;7.60;4.97;;;10.50;99.90;;;;;;5015262;28;20178;-80
2023/04/07 06:52:52;;;;;;;9.13;5.80;;;10.50;99.90;;;;;;5014294;28;20170;-80
2023/04/07 06:55:18;;;;;;;8.47;5.80;;;10.50;99.90;;;;;;5014863;28;20239;-80
2023/04/07 06:57:44;;;;;;;11.27;7.30;;;10.50;99.90;;;;;;5014807;28;20731;-79
2023/04/07 07:00:10;;;;;;;8.55;5.32;;;10.50;99.90;;;;;;5013306;28;20185;-80
2023/04/07 07:02:36;;;;;;;6.03;4.30;;;10.50;99.90;;;;;;5019851;28;20185;-80
2023/04/07 07:05:03;;;;;;;6.50;4.57;;;10.50;99.90;;;;;;5025841;28;20165;-80
2023/04/07 07:07:29;;;;;;;6.22;4.93;;;10.60;99.90;;;;;;5032975;28;20174;-80
2023/04/07 07:09:55;;;;;;;7.45;5.03;;;10.60;99.90;;;;;;5032245;28;20178;-80
2023/04/07 07:12:21;;;;;;;5.13;4.50;;;10.60;99.90;;;;;;5033546;28;20297;-79
2023/04/07 07:14:46;;;;;;;4.70;4.10;;;10.60;99.90;;;;;;5024089;28;20165;-79
2023/04/07 07:17:13;;;;;;;6.07;4.50;;;10.60;99.90;;;;;;5013323;28;20244;-79
2023/04/07 07:19:39;;;;;;;6.32;4.90;;;10.60;99.90;;;;;;5013932;28;20178;-79
2023/04/07 07:22:04;;;;;;;6.07;4.50;;;10.60;99.90;;;;;;5018913;28;20635;-79
2023/04/07 07:24:32;;;;;;;6.37;4.80;;;10.70;99.90;;;;;;5023162;28;20553;-79
2023/04/07 07:26:59;;;;;;;7.00;4.45;;;10.70;99.90;;;;;;5014351;28;20194;-79
2023/04/07 07:29:25;;;;;;;6.10;4.55;;;10.70;99.90;;;;;;5012462;28;20178;-77
2023/04/07 07:31:50;;;;;;;6.13;4.20;;;10.70;99.90;;;;;;5013655;28;20181;-78
2023/04/07 07:34:16;;;;;;;8.00;4.67;;;10.70;99.90;;;;;;5012198;28;20269;-77
2023/04/07 07:36:42;;;;;;;5.43;3.83;;;10.80;99.90;;;;;;5044961;28;20201;-78
2023/04/07 07:39:08;;;;;;;7.90;4.53;;;10.80;99.90;;;;;;5012432;28;20182;-78
2023/04/07 07:41:34;;;;;;;6.03;5.00;;;10.80;99.90;;;;;;5012612;28;20206;-78
2023/04/07 07:44:00;;;;;;;5.22;4.70;;;10.90;99.90;;;;;;5013602;28;20321;-78
2023/04/07 07:46:26;;;;;;;6.10;4.97;;;10.90;99.90;;;;;;5028181;28;20190;-78
2023/04/07 07:48:52;;;;;;;6.03;4.23;;;10.90;99.90;;;;;;5009676;28;20281;-77
2023/04/07 07:51:18;;;;;;;5.90;4.30;;;10.90;99.90;;;;;;4995004;28;20189;-77
2023/04/07 07:53:44;;;;;;;4.83;4.20;;;11.00;99.90;;;;;;5012092;28;20167;-77
2023/04/07 07:56:10;;;;;;;8.52;4.55;;;11.10;99.90;;;;;;4994482;28;20222;-77
2023/04/07 07:58:36;;;;;;;7.15;5.05;;;11.10;99.90;;;;;;5019818;28;20176;-76
2023/04/07 08:01:08;;;;;;;6.28;5.10;;;11.20;99.90;;;;;;5024648;28;20260;-76
2023/04/07 08:03:34;;;;;;;5.68;4.75;;;11.30;99.90;;;;;;5023360;28;20220;-77
2023/04/07 08:06:00;;;;;;;6.00;4.70;;;11.30;99.90;;;;;;5019619;28;20716;-77
2023/04/07 08:08:26;;;;;;;7.35;5.45;;;11.40;99.90;;;;;;5022547;28;20569;-77
2023/04/07 08:10:52;;;;;;;11.73;6.10;;;11.50;99.90;;;;;;5022479;28;20178;-77
2023/04/07 08:13:18;;;;;;;13.83;6.47;;;11.50;99.90;;;;;;5019033;28;20637;-77
2023/04/07 08:15:43;;;;;;;9.50;5.10;;;11.50;99.90;;;;;;5023679;28;20208;-76
2023/04/07 08:18:09;;;;;;;7.10;4.73;;;11.60;99.90;;;;;;5022575;28;20265;-76
2023/04/07 08:20:35;;;;;;;7.40;5.77;;;11.60;99.90;;;;;;5017733;28;20185;-77
2023/04/07 08:23:01;;;;;;;6.68;4.93;;;11.60;99.90;;;;;;5011154;28;20205;-76
2023/04/07 08:25:28;;;;;;;7.20;5.40;;;11.60;99.90;;;;;;5011129;28;20194;-76
2023/04/07 08:27:53;;;;;;;6.32;4.80;;;11.70;99.90;;;;;;4995147;28;20274;-76
2023/04/07 08:30:20;;;;;;;7.30;5.70;;;11.70;99.90;;;;;;5012252;28;20257;-76
2023/04/07 08:32:46;;;;;;;7.80;6.03;;;11.70;99.90;;;;;;5011116;28;20704;-76
2023/04/07 08:35:12;;;;;;;7.00;5.57;;;11.70;99.90;;;;;;5010573;28;20202;-76
2023/04/07 08:37:39;;;;;;;8.23;5.67;;;11.80;99.90;;;;;;5012172;28;21144;-76
2023/04/07 08:40:06;;;;;;;5.93;4.38;;;11.80;99.90;;;;;;5011936;28;20166;-76
2023/04/07 08:42:33;;;;;;;6.03;4.70;;;11.80;99.90;;;;;;5010354;28;20167;-76
2023/04/07 08:45:04;;;;;;;5.97;4.80;;;11.80;99.90;;;;;;5010803;28;20174;-76
2023/04/07 08:47:34;;;;;;;6.93;5.53;;;11.90;99.90;;;;;;5012438;28;20185;-76
2023/04/07 08:50:03;;;;;;;6.60;5.30;;;11.90;99.90;;;;;;4994500;28;20213;-76
2023/04/07 08:52:49;;;;;;;5.65;4.25;;;11.90;99.90;;;;;;5011539;28;20174;-76
2023/04/07 08:55:15;;;;;;;7.57;5.65;;;11.90;99.90;;;;;;5002602;28;20575;-76
2023/04/07 08:57:42;;;;;;;5.67;5.00;;;12.00;99.90;;;;;;4996483;28;20179;-76
2023/04/07 09:00:08;;;;;;;6.20;5.45;;;12.00;99.90;;;;;;4991482;28;20190;-76
2023/04/07 09:02:37;;;;;;;7.32;5.72;;;12.10;99.90;;;;;;4990151;28;20187;-76
2023/04/07 09:05:04;;;;;;;7.03;5.22;;;12.20;99.90;;;;;;4958780;28;20662;-76
2023/04/07 09:07:37;;;;;;;5.88;4.70;;;12.20;99.90;;;;;;4991448;28;20540;-76
2023/04/07 09:10:03;;;;;;;7.00;5.05;;;12.30;99.90;;;;;;4991427;28;20576;-76
2023/04/07 09:12:30;;;;;;;7.47;5.07;;;12.30;99.90;;;;;;5030910;28;20165;-76
2023/04/07 09:14:56;;;;;;;7.95;6.07;;;12.40;99.90;;;;;;5020240;28;20177;-76
2023/04/07 09:17:23;;;;;;;9.48;7.60;;;12.40;99.90;;;;;;5014807;28;20206;-76
2023/04/07 09:19:51;;;;;;;7.50;6.25;;;12.40;99.90;;;;;;5009887;28;20180;-77
2023/04/07 09:22:37;;;;;;;7.22;4.40;;;12.40;99.90;;;;;;5009931;28;20182;-77
2023/04/07 09:25:25;;;;;;;7.50;5.10;;;12.40;99.90;;;;;;5010428;28;20318;-78
2023/04/07 09:28:02;;;;;;;6.65;4.15;;;12.40;99.90;;;;;;5010725;28;20190;-78
2023/04/07 09:30:32;;;;;;;5.30;4.25;;;12.40;99.90;;;;;;5011391;28;20253;-78
2023/04/07 09:33:00;;;;;;;6.93;5.03;;;12.40;99.90;;;;;;5026557;28;20200;-78
2023/04/07 09:35:27;;;;;;;5.28;4.05;;;12.40;99.90;;;;;;5009751;28;20259;-78
2023/04/07 09:38:07;;;;;;;7.72;5.00;;;12.50;99.90;;;;;;5010587;28;20171;-78
2023/04/07 09:40:34;;;;;;;5.43;4.93;;;12.40;99.90;;;;;;5026294;28;20178;-78
2023/04/07 09:43:01;;;;;;;8.15;5.00;;;12.50;99.90;;;;;;5009695;28;20252;-78
2023/04/07 09:45:30;;;;;;;7.65;5.25;;;12.50;99.90;;;;;;5009427;28;20198;-78
2023/04/07 09:47:56;;;;;;;8.38;5.80;;;12.50;99.90;;;;;;5011297;28;20220;-78
2023/04/07 09:51:03;;;;;;;7.20;5.60;;;12.50;99.90;;;;;;5009768;28;20740;-78
2023/04/07 09:53:49;;;;;;;7.75;5.10;;;12.40;99.90;;;;;;5016119;28;20185;-77
2023/04/07 09:56:16;;;;;;;7.60;5.30;;;12.50;99.90;;;;;;5010907;28;20709;-78
2023/04/07 09:58:47;;;;;;;8.60;5.50;;;12.60;99.90;;;;;;5014715;28;20169;-77
2023/04/07 10:01:15;;;;;;;6.80;5.32;;;12.60;99.90;;;;;;5030472;28;20527;-78
2023/04/07 10:03:41;;;;;;;6.65;5.68;;;12.70;99.90;;;;;;5031142;28;20559;-78
2023/04/07 10:06:07;;;;;;;10.68;5.72;;;12.70;99.90;;;;;;5031259;28;20204;-78
2023/04/07 10:08:35;;;;;;;6.97;4.77;;;12.70;99.90;;;;;;5029579;28;20170;-78
2023/04/07 10:11:02;;;;;;;9.35;7.38;;;12.70;99.90;;;;;;5029547;28;20631;-79
2023/04/07 10:13:33;;;;;;;7.97;6.80;;;12.70;99.90;;;;;;5019162;28;20265;-78
2023/04/07 10:16:05;;;;;;;8.25;6.18;;;12.60;99.90;;;;;;5010012;28;20217;-79
2023/04/07 10:18:35;;;;;;;7.88;6.18;;;12.60;99.90;;;;;;5011116;28;20566;-79
2023/04/07 10:21:05;;;;;;;10.55;6.43;;;12.60;99.90;;;;;;5010550;28;20224;-78
2023/04/07 10:23:31;;;;;;;13.55;8.27;;;12.60;99.90;;;;;;5009403;28;20545;-78
2023/04/07 10:25:58;;;;;;;9.17;6.50;;;12.60;99.90;;;;;;5010196;28;20221;-78
2023/04/07 10:28:26;;;;;;;8.35;6.60;;;12.60;99.90;;;;;;5011529;28;20170;-79
2023/04/07 10:30:52;;;;;;;8.63;6.00;;;12.60;99.90;;;;;;4992946;28;20233;-78
2023/04/07 10:33:48;;;;;;;9.88;6.10;;;12.70;99.90;;;;;;5011262;28;20733;-79
2023/04/07 10:36:14;;;;;;;9.98;7.90;;;12.80;99.90;;;;;;5009489;28;20197;-79
2023/04/07 10:38:41;;;;;;;10.98;8.70;;;12.80;99.90;;;;;;5010329;28;20170;-79
2023/04/07 10:41:35;;;;;;;10.68;7.90;;;12.90;99.90;;;;;;5010031;28;20189;-79
2023/04/07 10:44:02;;;;;;;13.80;9.38;;;13.00;99.90;;;;;;5011067;28;20210;-79
2023/04/07 10:46:50;;;;;;;12.80;8.95;;;13.00;99.90;;;;;;4992841;28;20201;-79
2023/04/07 10:49:16;;;;;;;13.65;9.48;;;13.00;99.90;;;;;;5021265;28;20784;-79
2023/04/07 10:51:43;;;;;;;12.00;8.17;;;13.00;99.90;;;;;;4991344;28;20175;-79
2023/04/07 10:54:22;;;;;;;10.80;8.48;;;13.00;99.90;;;;;;4992639;28;20589;-78
2023/04/07 10:57:03;;;;;;;10.93;9.13;;;12.90;99.90;;;;;;5017581;28;20236;-81
2023/04/07 10:59:30;;;;;;;11.85;8.23;;;12.90;99.90;;;;;;5020370;28;20257;-81
2023/04/07 11:02:23;;;;;;;9.57;7.50;;;12.80;99.90;;;;;;4999926;28;20670;-81
2023/04/07 11:04:49;;;;;;;12.52;9.50;;;12.70;99.90;;;;;;5013276;28;20229;-79
2023/04/07 11:07:15;;;;;;;11.57;7.63;;;12.60;99.90;;;;;;5014355;28;20618;-80
2023/04/07 11:09:41;;;;;;;8.70;6.75;;;12.60;99.90;;;;;;5014281;28;20592;-80
2023/04/07 11:12:07;;;;;;;9.00;6.90;;;12.60;99.90;;;;;;5013893;28;20167;-79
2023/04/07 11:14:36;;;;;;;10.13;8.60;;;12.60;99.90;;;;;;5013969;28;20584;-79
2023/04/07 11:17:03;;;;;;;10.63;8.80;;;12.60;99.90;;;;;;5012733;28;20206;-80
2023/04/07 11:19:31;;;;;;;10.02;6.82;;;12.70;99.90;;;;;;5012358;28;20182;-80
2023/04/07 11:22:16;;;;;;;10.38;8.50;;;12.70;99.90;;;;;;5000415;28;20209;-80
2023/04/07 11:24:42;;;;;;;7.07;6.15;;;12.80;99.90;;;;;;5013922;28;20194;-81
2023/04/07 11:27:14;;;;;;;8.82;6.90;;;12.90;99.90;;;;;;5012916;28;20198;-80
2023/04/07 11:29:40;;;;;;;11.32;8.80;;;13.10;99.90;;;;;;5012507;28;20314;-81
2023/04/07 11:32:06;;;;;;;15.00;9.87;;;13.20;99.90;;;;;;5013828;28;20278;-81
2023/04/07 11:34:34;;;;;;;10.53;7.73;;;13.40;99.90;;;;;;5013502;28;21243;-81
2023/04/07 11:37:20;;;;;;;10.82;8.10;;;13.50;99.90;;;;;;5014223;28;20976;-80
2023/04/07 11:39:56;;;;;;;9.55;8.13;;;13.50;99.90;;;;;;5014158;28;20174;-82
2023/04/07 11:42:36;;;;;;;11.05;9.20;;;13.60;99.90;;;;;;5028502;28;20182;-82
2023/04/07 11:45:02;;;;;;;8.57;7.50;;;13.70;99.90;;;;;;5015068;28;20562;-81
2023/04/07 11:47:39;;;;;;;14.40;9.85;;;13.80;99.90;;;;;;5012425;28;20171;-82
2023/04/07 11:50:05;;;;;;;10.45;8.15;;;13.80;99.90;;;;;;5013983;28;20170;-82
2023/04/07 11:52:46;;;;;;;9.65;7.68;;;13.90;99.90;;;;;;5019864;28;20174;-81
2023/04/07 11:55:23;;;;;;;8.35;6.35;;;14.00;99.90;;;;;;5027363;28;20301;-81
2023/04/07 11:57:52;;;;;;;11.05;8.18;;;14.10;99.90;;;;;;5022456;28;20166;-81
2023/04/07 12:00:19;;;;;;;8.13;6.85;;;14.10;99.90;;;;;;5030019;28;20174;-81
2023/04/07 12:02:45;;;;;;;7.13;6.43;;;14.10;99.90;;;;;;5031609;28;20527;-81
2023/04/07 12:05:11;;;;;;;9.37;6.37;;;14.10;99.90;;;;;;5034589;28;20206;-82
2023/04/07 12:07:37;;;;;;;8.87;5.20;;;14.00;99.90;;;;;;5032924;28;20573;-82
2023/04/07 12:10:20;;;;;;;8.40;6.40;;;14.10;99.90;;;;;;5020089;28;20930;-82
2023/04/07 12:12:46;;;;;;;7.95;6.30;;;14.10;99.90;;;;;;5010526;28;20243;-82
2023/04/07 12:15:12;;;;;;;11.50;6.78;;;14.10;99.90;;;;;;5013333;28;20732;-81
2023/04/07 12:17:43;;;;;;;6.47;5.80;;;14.10;99.90;;;;;;5014611;28;20170;-81
2023/04/07 12:20:09;;;;;;;6.25;5.50;;;14.10;99.90;;;;;;5012531;28;20205;-81
2023/04/07 12:22:35;;;;;;;8.60;6.70;;;14.10;99.90;;;;;;5011514;28;20543;-82
2023/04/07 12:25:01;;;;;;;11.30;7.07;;;14.10;99.90;;;;;;4995053;28;20217;-82
2023/04/07 12:27:27;;;;;;;9.47;6.07;;;14.10;99.90;;;;;;4995612;28;20265;-83
2023/04/07 12:29:53;;;;;;;8.20;7.00;;;14.10;99.90;;;;;;4994981;28;20197;-83
2023/04/07 12:32:18;;;;;;;7.00;5.67;;;14.10;99.90;;;;;;5011617;28;20170;-81
2023/04/07 12:34:44;;;;;;;7.53;6.43;;;14.10;99.90;;;;;;5011139;28;20182;-82
2023/04/07 12:37:10;;;;;;;6.47;5.40;;;14.20;99.90;;;;;;5011674;28;20198;-82
2023/04/07 12:39:35;;;;;;;7.57;6.10;;;14.20;99.90;;;;;;5019368;28;20194;-81
2023/04/07 12:42:01;;;;;;;6.37;5.53;;;14.30;99.90;;;;;;5026931;28;20649;-81
2023/04/07 12:44:27;;;;;;;5.37;4.77;;;14.40;99.90;;;;;;5031075;28;20201;-81
2023/04/07 12:46:52;;;;;;;7.43;5.60;;;14.40;99.90;;;;;;5030747;28;20247;-82